Forside
METAR-TAF:

METAR-TAF

Lufthavne :

Sapporo, Japan

Breddekreds: 43-07N, længdekreds: 141-23E, højde: 8 m

Aktuelle vejr

Denne rapport blev lavet for 5 timer og 52 minutter siden, kl. 11:00 UTC
Vind 4 kt fra syd
Temperatur 0°C
Fugtighed 64%
Tryk 1028 hPa
Sigt 10 km eller mere
Nogle få skyer i en højde af 1500 ft
Brudte skyer i en højde af 4500 ft

METAR: RJCO 201100Z 17004KT 9999 FEW015 BKN045 M00/M06 Q1028

Tid: 01:52 (16:52 UTC)


TAF: fraværende

Vejrobservationer og prognoser fra mere end 4000 lufthavne (METAR og TAF).

De gule og røde prikker repræsenterer de meteorologiske stationer.

Flyt musen over at se navnet på stationen.

Så klik over at se vejr observationer og prognoser.

At skifte det kort: Klik på de grønne knapper med et sort kors for at zoome ind; på den grønne knap med en bindestreg for at zoome ud; eller på de grønne pile for tilstødende kort.


METAR-TAF: